Time;durP1;ratioP1;P1;durP2;ratioP2;P2;SDS_P1;SDS_P2;PMS_P1;PMS_P2;Temp;Humidity;BMP_temperature;BMP_pressure;BME280_temperature;BME280_humidity;BME280_pressure;Samples;Min_cycle;Max_cycle;Signal;HPM_P1;HPM_P2
2024/01/26 00:01:30;;;;;;;18.52;9.02;;;8.60;99.90;;;;;;5035897;28;20025;-80
2024/01/26 00:03:57;;;;;;;22.08;9.18;;;8.60;99.90;;;;;;5033216;28;20487;-80
2024/01/26 00:06:23;;;;;;;17.90;8.93;;;8.70;99.90;;;;;;5032115;28;20076;-81
2024/01/26 00:08:49;;;;;;;20.88;9.80;;;8.60;99.90;;;;;;5027527;28;20490;-80
2024/01/26 00:11:16;;;;;;;17.27;9.15;;;8.70;99.90;;;;;;5010199;28;20079;-80
2024/01/26 00:13:41;;;;;;;18.30;10.43;;;8.60;99.90;;;;;;5012318;28;20120;-80
2024/01/26 00:16:07;;;;;;;14.52;9.07;;;8.70;99.90;;;;;;5014823;28;20101;-81
2024/01/26 00:18:33;;;;;;;18.08;10.40;;;8.60;99.90;;;;;;5011956;28;20029;-80
2024/01/26 00:20:59;;;;;;;24.27;10.07;;;8.60;99.90;;;;;;5013574;28;20021;-81
2024/01/26 00:23:24;;;;;;;17.92;9.18;;;8.70;99.90;;;;;;5011014;28;20028;-80
2024/01/26 00:25:50;;;;;;;19.15;9.57;;;8.60;99.90;;;;;;5034103;28;20029;-80
2024/01/26 00:28:15;;;;;;;20.55;10.15;;;8.60;99.90;;;;;;5017292;28;20140;-80
2024/01/26 00:30:41;;;;;;;19.48;9.65;;;8.60;99.90;;;;;;5014504;28;20064;-80
2024/01/26 00:33:07;;;;;;;19.45;11.07;;;8.70;99.90;;;;;;5014879;28;20112;-80
2024/01/26 00:35:33;;;;;;;22.75;10.57;;;8.60;99.90;;;;;;5015077;28;20137;-80
2024/01/26 00:37:59;;;;;;;19.15;9.27;;;8.60;99.90;;;;;;5034588;28;20515;-81
2024/01/26 00:40:24;;;;;;;22.13;9.43;;;8.60;99.90;;;;;;5035071;28;20029;-80
2024/01/26 00:42:50;;;;;;;16.80;9.73;;;8.60;99.90;;;;;;5015912;28;20135;-81
2024/01/26 00:45:15;;;;;;;17.77;9.25;;;8.60;99.90;;;;;;5017042;28;20044;-80
2024/01/26 00:47:41;;;;;;;21.10;9.13;;;8.70;99.90;;;;;;5015258;28;20050;-80
2024/01/26 00:50:07;;;;;;;21.55;10.88;;;8.60;99.90;;;;;;5031354;28;20056;-80
2024/01/26 00:52:32;;;;;;;23.90;10.43;;;8.60;99.90;;;;;;5015394;28;20455;-80
2024/01/26 00:54:59;;;;;;;24.88;11.60;;;8.60;99.90;;;;;;5036447;28;20027;-80
2024/01/26 00:57:25;;;;;;;25.77;12.30;;;8.60;99.90;;;;;;5027971;28;20033;-80
2024/01/26 00:59:51;;;;;;;23.30;11.27;;;8.60;99.90;;;;;;5016438;28;20010;-81
2024/01/26 01:02:16;;;;;;;22.98;10.70;;;8.60;99.90;;;;;;5015654;28;20492;-80
2024/01/26 01:04:42;;;;;;;23.83;11.82;;;8.60;99.90;;;;;;5033431;28;20021;-81
2024/01/26 01:07:08;;;;;;;21.88;10.55;;;8.60;99.90;;;;;;5033147;28;20037;-80
2024/01/26 01:09:34;;;;;;;22.63;10.15;;;8.60;99.90;;;;;;5015357;28;20369;-80
2024/01/26 01:12:00;;;;;;;18.77;9.65;;;8.60;99.90;;;;;;5032726;28;20488;-80
2024/01/26 01:14:25;;;;;;;19.05;10.02;;;8.60;99.90;;;;;;5019254;28;20128;-80
2024/01/26 01:16:51;;;;;;;18.58;9.10;;;8.60;99.90;;;;;;5032980;28;20078;-80
2024/01/26 01:19:17;;;;;;;19.92;9.57;;;8.60;99.90;;;;;;5015388;28;20013;-79
2024/01/26 01:21:45;;;;;;;25.80;10.32;;;8.60;99.90;;;;;;5017060;28;20637;-81
2024/01/26 01:24:10;;;;;;;20.27;9.45;;;8.60;99.90;;;;;;5017586;28;20083;-81
2024/01/26 01:26:36;;;;;;;15.30;8.52;;;8.60;99.90;;;;;;5031921;28;20029;-80
2024/01/26 01:29:01;;;;;;;16.52;8.38;;;8.60;99.90;;;;;;5015032;28;20029;-80
2024/01/26 01:31:27;;;;;;;21.35;8.68;;;8.60;99.90;;;;;;5015371;28;20026;-81
2024/01/26 01:33:52;;;;;;;16.75;9.20;;;8.60;99.90;;;;;;5015028;28;20034;-80
2024/01/26 01:36:18;;;;;;;14.75;7.70;;;8.60;99.90;;;;;;5015000;28;20025;-80
2024/01/26 01:38:43;;;;;;;12.95;7.10;;;8.60;99.90;;;;;;5014947;28;20025;-80
2024/01/26 01:41:09;;;;;;;11.75;7.03;;;8.60;99.90;;;;;;5013812;28;20032;-79
2024/01/26 01:43:34;;;;;;;14.00;8.05;;;8.60;99.90;;;;;;5032130;28;20502;-80
2024/01/26 01:46:00;;;;;;;13.25;6.90;;;8.60;99.90;;;;;;5014617;28;20403;-80
2024/01/26 01:48:26;;;;;;;12.18;6.72;;;8.60;99.90;;;;;;5015916;28;20028;-80
2024/01/26 01:50:51;;;;;;;11.07;5.82;;;8.60;99.90;;;;;;5014740;28;20529;-80
2024/01/26 01:53:17;;;;;;;10.80;6.32;;;8.60;99.90;;;;;;5014441;28;20500;-80
2024/01/26 01:55:43;;;;;;;10.85;6.35;;;8.60;99.90;;;;;;5032023;28;20703;-80
2024/01/26 01:58:10;;;;;;;10.85;5.68;;;8.60;99.90;;;;;;5031491;28;20121;-80
2024/01/26 02:00:37;;;;;;;11.57;5.93;;;8.60;99.90;;;;;;5014320;28;20017;-80
2024/01/26 02:03:02;;;;;;;9.23;5.50;;;8.60;99.90;;;;;;5015403;28;20072;-80
2024/01/26 02:05:28;;;;;;;12.75;5.88;;;8.60;99.90;;;;;;5033101;28;20431;-80
2024/01/26 02:07:53;;;;;;;8.95;5.05;;;8.60;99.90;;;;;;5012128;28;20029;-80
2024/01/26 02:10:19;;;;;;;9.13;5.38;;;8.60;99.90;;;;;;5032175;28;20022;-80
2024/01/26 02:12:45;;;;;;;12.82;5.88;;;8.60;99.90;;;;;;5015556;28;20029;-80
2024/01/26 02:15:10;;;;;;;11.20;5.00;;;8.60;99.90;;;;;;5014195;28;20491;-80
2024/01/26 02:17:36;;;;;;;9.50;5.22;;;8.60;99.90;;;;;;5017224;28;20125;-82
2024/01/26 02:20:04;;;;;;;8.73;4.50;;;8.60;99.90;;;;;;5034457;28;20082;-80
2024/01/26 02:22:29;;;;;;;9.15;5.20;;;8.60;99.90;;;;;;5014193;28;20026;-80
2024/01/26 02:24:55;;;;;;;13.57;5.90;;;8.60;99.90;;;;;;5031821;28;20063;-80
2024/01/26 02:27:22;;;;;;;10.60;4.65;;;8.60;99.90;;;;;;5010537;28;20060;-80
2024/01/26 02:29:48;;;;;;;7.53;4.55;;;8.60;99.90;;;;;;5013187;28;20184;-80
2024/01/26 02:32:13;;;;;;;10.25;4.82;;;8.60;99.90;;;;;;5013010;28;20562;-80
2024/01/26 02:34:39;;;;;;;11.68;4.70;;;8.60;99.90;;;;;;5033154;28;20029;-79
2024/01/26 02:37:05;;;;;;;9.23;5.45;;;8.60;99.90;;;;;;5013204;28;20029;-80
2024/01/26 02:39:32;;;;;;;10.00;4.70;;;8.60;99.90;;;;;;5035291;28;20017;-82
2024/01/26 02:41:58;;;;;;;8.95;4.72;;;8.60;99.90;;;;;;5013534;28;20431;-80
2024/01/26 02:44:23;;;;;;;9.60;4.57;;;8.60;99.90;;;;;;5013896;28;20017;-81
2024/01/26 02:46:49;;;;;;;8.20;4.50;;;8.60;99.90;;;;;;5031350;28;20388;-82
2024/01/26 02:49:16;;;;;;;10.02;4.90;;;8.60;99.90;;;;;;5015287;28;20371;-82
2024/01/26 02:51:41;;;;;;;6.80;4.10;;;8.60;99.90;;;;;;5031261;28;20040;-80
2024/01/26 02:54:07;;;;;;;10.50;4.60;;;8.60;99.90;;;;;;5031374;28;20021;-81
2024/01/26 02:56:33;;;;;;;9.98;4.25;;;8.60;99.90;;;;;;5032639;28;20067;-84
2024/01/26 02:58:58;;;;;;;9.48;4.30;;;8.60;99.90;;;;;;5030104;28;20010;-82
2024/01/26 03:01:24;;;;;;;7.78;4.18;;;8.60;99.90;;;;;;5014154;28;20021;-83
2024/01/26 03:03:49;;;;;;;8.30;4.38;;;8.60;99.90;;;;;;5031135;28;20091;-81
2024/01/26 03:06:16;;;;;;;6.15;3.95;;;8.60;99.90;;;;;;5034283;28;20486;-81
2024/01/26 03:08:41;;;;;;;6.95;4.43;;;8.60;99.90;;;;;;5033512;28;20096;-81
2024/01/26 03:11:07;;;;;;;5.38;3.60;;;8.60;99.90;;;;;;5011883;28;20097;-80
2024/01/26 03:13:33;;;;;;;7.18;3.80;;;8.60;99.90;;;;;;5031578;28;20024;-81
2024/01/26 03:15:59;;;;;;;6.38;3.53;;;8.60;99.90;;;;;;5013371;28;20485;-81
2024/01/26 03:18:24;;;;;;;6.95;3.55;;;8.60;99.90;;;;;;5033905;28;20040;-83
2024/01/26 03:20:50;;;;;;;7.55;3.95;;;8.60;99.90;;;;;;5033591;28;20022;-82
2024/01/26 03:23:15;;;;;;;12.85;3.67;;;8.60;99.90;;;;;;5030864;28;20017;-82
2024/01/26 03:25:41;;;;;;;6.57;3.45;;;8.60;99.90;;;;;;5013872;28;20028;-80
2024/01/26 03:28:06;;;;;;;11.48;4.05;;;8.60;99.90;;;;;;5030397;28;20364;-80
2024/01/26 03:30:33;;;;;;;5.60;3.38;;;8.60;99.90;;;;;;5013003;28;20021;-81
2024/01/26 03:32:59;;;;;;;5.57;3.25;;;8.60;99.90;;;;;;5033386;28;20017;-81
2024/01/26 03:35:24;;;;;;;8.32;3.67;;;8.60;99.90;;;;;;5030277;28;20020;-81
2024/01/26 03:37:50;;;;;;;6.10;3.47;;;8.60;99.90;;;;;;5012774;28;20036;-81
2024/01/26 03:40:15;;;;;;;5.75;3.63;;;8.60;99.90;;;;;;5009995;28;20013;-81
2024/01/26 03:42:42;;;;;;;6.90;4.15;;;8.60;99.90;;;;;;5030251;28;20030;-80
2024/01/26 03:45:07;;;;;;;5.18;3.22;;;8.60;99.90;;;;;;5032473;28;20499;-81
2024/01/26 03:47:33;;;;;;;5.53;3.13;;;8.60;99.90;;;;;;5032693;28;20056;-80
2024/01/26 03:49:58;;;;;;;7.30;3.85;;;8.60;99.90;;;;;;5030187;28;20021;-82
2024/01/26 03:52:24;;;;;;;5.65;3.75;;;8.60;99.90;;;;;;5013382;28;20120;-80
2024/01/26 03:54:50;;;;;;;5.40;2.95;;;8.60;99.90;;;;;;5016359;28;20071;-81
2024/01/26 03:57:15;;;;;;;4.95;3.10;;;8.60;99.90;;;;;;5029789;28;20057;-80
2024/01/26 03:59:41;;;;;;;8.73;3.28;;;8.60;99.90;;;;;;5012477;28;20013;-81
2024/01/26 04:02:06;;;;;;;5.32;2.75;;;8.60;99.90;;;;;;5028763;28;20017;-80
2024/01/26 04:04:32;;;;;;;5.20;3.00;;;8.60;99.90;;;;;;5029632;28;20016;-80
2024/01/26 04:06:57;;;;;;;4.15;2.80;;;8.60;99.90;;;;;;5012382;28;20054;-80
2024/01/26 04:09:23;;;;;;;4.60;3.03;;;8.60;99.90;;;;;;5035209;28;20407;-80
2024/01/26 04:11:49;;;;;;;4.55;3.00;;;8.60;99.90;;;;;;5030288;28;20426;-80
2024/01/26 04:14:14;;;;;;;4.43;2.65;;;8.60;99.90;;;;;;5012231;28;20524;-81
2024/01/26 04:16:40;;;;;;;4.88;3.25;;;8.60;99.90;;;;;;5011662;28;20787;-80
2024/01/26 04:19:05;;;;;;;5.10;2.85;;;8.60;99.90;;;;;;5029397;28;20041;-80
2024/01/26 04:21:31;;;;;;;4.60;2.78;;;8.60;99.90;;;;;;5012229;28;20392;-80
2024/01/26 04:23:57;;;;;;;5.35;2.88;;;8.60;99.90;;;;;;5011436;28;20369;-80
2024/01/26 04:26:22;;;;;;;6.25;2.85;;;8.60;99.90;;;;;;5028905;28;20018;-79
2024/01/26 04:28:48;;;;;;;4.15;2.47;;;8.60;99.90;;;;;;5029520;28;20022;-79
2024/01/26 04:31:14;;;;;;;8.35;3.55;;;8.60;99.90;;;;;;5015580;28;20017;-80
2024/01/26 04:33:39;;;;;;;6.38;3.30;;;8.60;99.90;;;;;;5012172;28;20021;-80
2024/01/26 04:36:09;;;;;;;6.95;3.70;;;8.60;99.90;;;;;;5013796;28;20086;-80
2024/01/26 04:38:36;;;;;;;8.55;3.60;;;8.60;99.90;;;;;;5012234;28;20021;-80
2024/01/26 04:41:03;;;;;;;5.40;2.92;;;8.60;99.90;;;;;;5029393;28;20045;-80
2024/01/26 04:43:29;;;;;;;6.10;3.40;;;8.60;99.90;;;;;;5011333;28;20029;-81
2024/01/26 04:45:55;;;;;;;7.22;3.47;;;8.60;99.90;;;;;;5029557;28;20025;-79
2024/01/26 04:48:21;;;;;;;5.82;3.55;;;8.60;99.90;;;;;;5029636;28;20038;-81
2024/01/26 04:50:46;;;;;;;6.07;3.20;;;8.60;99.90;;;;;;5010426;28;20109;-80
2024/01/26 04:53:12;;;;;;;6.22;3.70;;;8.60;99.90;;;;;;5008706;28;20052;-81
2024/01/26 04:55:38;;;;;;;7.88;3.70;;;8.60;99.90;;;;;;5015164;28;20128;-80
2024/01/26 04:58:03;;;;;;;7.35;3.65;;;8.60;99.90;;;;;;5011575;28;20029;-80
2024/01/26 05:00:30;;;;;;;6.25;3.65;;;8.60;99.90;;;;;;5028168;28;20040;-80
2024/01/26 05:02:55;;;;;;;6.97;3.88;;;8.60;99.90;;;;;;5031145;28;20021;-80
2024/01/26 05:05:21;;;;;;;7.13;3.97;;;8.60;99.90;;;;;;5029319;28;20030;-81
2024/01/26 05:07:46;;;;;;;10.15;4.13;;;8.60;99.90;;;;;;5011802;28;20115;-80
2024/01/26 05:10:12;;;;;;;6.60;3.83;;;8.60;99.90;;;;;;5011731;28;20040;-80
2024/01/26 05:12:37;;;;;;;9.82;4.05;;;8.60;99.90;;;;;;5011202;28;20112;-81
2024/01/26 05:15:04;;;;;;;14.75;4.78;;;8.60;99.90;;;;;;5011587;28;20022;-80
2024/01/26 05:17:29;;;;;;;8.98;4.30;;;8.60;99.90;;;;;;5030125;28;20029;-80
2024/01/26 05:19:55;;;;;;;8.73;4.03;;;8.60;99.90;;;;;;5015958;28;20078;-80
2024/01/26 05:22:20;;;;;;;15.98;4.63;;;8.60;99.90;;;;;;5019365;28;20025;-80
2024/01/26 05:24:46;;;;;;;9.80;4.45;;;8.60;99.90;;;;;;5033088;28;20466;-80
2024/01/26 05:27:12;;;;;;;15.57;4.82;;;8.60;99.90;;;;;;5015200;28;20020;-80
2024/01/26 05:29:38;;;;;;;11.13;4.28;;;8.60;99.90;;;;;;5033739;28;20029;-80
2024/01/26 05:32:04;;;;;;;8.30;4.80;;;8.60;99.90;;;;;;5015038;28;20479;-81
2024/01/26 05:34:30;;;;;;;7.53;4.53;;;8.60;99.90;;;;;;5034545;28;20089;-81
2024/01/26 05:36:56;;;;;;;10.02;5.07;;;8.60;99.90;;;;;;5014823;28;20029;-80
2024/01/26 05:39:21;;;;;;;8.75;4.57;;;8.60;99.90;;;;;;5033796;28;20021;-80
2024/01/26 05:41:47;;;;;;;9.48;4.80;;;8.60;99.90;;;;;;5033521;28;20036;-80
2024/01/26 05:44:12;;;;;;;11.23;4.47;;;8.60;99.90;;;;;;5034168;28;20096;-81
2024/01/26 05:46:38;;;;;;;5.88;4.45;;;8.50;99.90;;;;;;5033278;28;20033;-80
2024/01/26 05:49:04;;;;;;;10.60;5.40;;;8.60;99.90;;;;;;5014694;28;20028;-80
2024/01/26 05:51:29;;;;;;;9.27;5.07;;;8.60;99.90;;;;;;5018068;28;20507;-80
2024/01/26 05:53:55;;;;;;;10.48;4.85;;;8.60;99.90;;;;;;5014726;28;20107;-79
2024/01/26 05:56:24;;;;;;;8.70;4.60;;;8.60;99.90;;;;;;5035064;28;20033;-81
2024/01/26 05:58:52;;;;;;;11.48;5.72;;;8.50;99.90;;;;;;5017109;28;20102;-81
2024/01/26 06:01:18;;;;;;;9.32;4.88;;;8.50;99.90;;;;;;5017208;28;20446;-80
2024/01/26 06:03:43;;;;;;;7.28;4.40;;;8.60;99.90;;;;;;5032965;28;20113;-80
2024/01/26 06:06:09;;;;;;;11.18;5.40;;;8.50;99.90;;;;;;5014403;28;20017;-80
2024/01/26 06:08:34;;;;;;;9.32;4.72;;;8.60;99.90;;;;;;5013430;28;20550;-80
2024/01/26 06:11:00;;;;;;;13.40;5.80;;;8.60;99.90;;;;;;5014473;28;20428;-80
2024/01/26 06:13:25;;;;;;;8.68;5.00;;;8.50;99.90;;;;;;5014203;28;20029;-80
2024/01/26 06:15:52;;;;;;;9.70;4.82;;;8.50;99.90;;;;;;5015112;28;20060;-81
2024/01/26 06:18:17;;;;;;;7.35;4.15;;;8.50;99.90;;;;;;5032885;28;20028;-80
2024/01/26 06:20:43;;;;;;;10.25;4.53;;;8.50;99.90;;;;;;5014112;28;20029;-80
2024/01/26 06:23:09;;;;;;;9.15;3.78;;;8.50;99.90;;;;;;5009716;28;20117;-80
2024/01/26 06:25:34;;;;;;;9.45;4.68;;;8.60;99.90;;;;;;5036004;28;20032;-80
2024/01/26 06:28:00;;;;;;;8.68;4.45;;;8.60;99.90;;;;;;5014174;28;20578;-81
2024/01/26 06:30:25;;;;;;;8.57;4.20;;;8.60;99.90;;;;;;5014424;28;20036;-79
2024/01/26 06:32:51;;;;;;;9.15;4.60;;;8.50;99.90;;;;;;5014096;28;20022;-81
2024/01/26 06:35:17;;;;;;;9.80;5.30;;;8.50;99.90;;;;;;5013271;28;20033;-80
2024/01/26 06:37:43;;;;;;;12.30;4.75;;;8.50;99.90;;;;;;5015838;28;20475;-80
2024/01/26 06:40:10;;;;;;;11.75;4.70;;;8.50;99.90;;;;;;5033471;28;20066;-80
2024/01/26 06:42:40;;;;;;;8.77;5.07;;;8.60;99.90;;;;;;5031440;28;20040;-81
2024/01/26 06:45:10;;;;;;;10.38;5.20;;;8.50;99.90;;;;;;5013783;28;20018;-80
2024/01/26 06:47:36;;;;;;;9.65;5.28;;;8.50;99.90;;;;;;5029197;28;20045;-80
2024/01/26 06:50:03;;;;;;;13.35;5.55;;;8.50;99.90;;;;;;5029675;28;20407;-80
2024/01/26 06:52:28;;;;;;;10.20;4.85;;;8.50;99.90;;;;;;5012788;28;20057;-80
2024/01/26 06:54:54;;;;;;;9.45;5.30;;;8.50;99.90;;;;;;5030790;28;20549;-80
2024/01/26 06:57:19;;;;;;;9.85;5.07;;;8.60;99.90;;;;;;5009873;28;20598;-80
2024/01/26 06:59:45;;;;;;;9.05;4.90;;;8.50;99.90;;;;;;5028707;28;20495;-80
2024/01/26 07:02:11;;;;;;;8.00;4.60;;;8.60;99.90;;;;;;5027763;28;20503;-80
2024/01/26 07:04:37;;;;;;;10.95;5.35;;;8.50;99.90;;;;;;5031040;28;20024;-80
2024/01/26 07:07:02;;;;;;;11.27;4.70;;;8.60;99.90;;;;;;5030989;28;20032;-80
2024/01/26 07:09:28;;;;;;;11.77;5.25;;;8.50;99.90;;;;;;5031294;28;20437;-80
2024/01/26 07:11:54;;;;;;;10.85;5.15;;;8.50;99.90;;;;;;5030198;28;20022;-80
2024/01/26 07:14:19;;;;;;;8.80;4.13;;;8.50;99.90;;;;;;5027317;28;20100;-81
2024/01/26 07:16:48;;;;;;;7.88;4.65;;;8.60;99.90;;;;;;5012635;28;20067;-80
2024/01/26 07:19:14;;;;;;;6.63;3.78;;;8.60;99.90;;;;;;5029499;28;20583;-79
2024/01/26 07:21:40;;;;;;;7.55;4.30;;;8.50;99.90;;;;;;5030811;28;20032;-80
2024/01/26 07:24:06;;;;;;;6.22;3.70;;;8.50;99.90;;;;;;5030281;28;20021;-79
2024/01/26 07:26:31;;;;;;;8.50;4.18;;;8.60;99.90;;;;;;5026310;28;20028;-81
2024/01/26 07:28:57;;;;;;;7.70;4.57;;;8.50;99.90;;;;;;5030738;28;20032;-80
2024/01/26 07:31:23;;;;;;;6.75;3.70;;;8.50;99.90;;;;;;5030897;28;20022;-80
2024/01/26 07:33:48;;;;;;;5.60;3.30;;;8.50;99.90;;;;;;5012875;28;20068;-81
2024/01/26 07:36:14;;;;;;;7.18;3.42;;;8.50;99.90;;;;;;5028779;28;20010;-80
2024/01/26 07:38:39;;;;;;;10.30;3.35;;;8.60;99.90;;;;;;5011122;28;20026;-81
2024/01/26 07:41:05;;;;;;;7.47;3.35;;;8.60;99.90;;;;;;5010085;28;20387;-80
2024/01/26 07:43:31;;;;;;;5.50;3.28;;;8.60;99.90;;;;;;5010921;28;20030;-81
2024/01/26 07:45:56;;;;;;;6.30;2.80;;;8.50;99.90;;;;;;5012336;28;20018;-79
2024/01/26 07:48:22;;;;;;;8.43;3.10;;;8.60;99.90;;;;;;5012612;28;20040;-80
2024/01/26 07:50:49;;;;;;;7.35;3.50;;;8.60;99.90;;;;;;5009530;28;20172;-80
2024/01/26 07:53:15;;;;;;;4.70;2.95;;;8.60;99.90;;;;;;5012595;28;20025;-80
2024/01/26 07:55:41;;;;;;;5.53;2.90;;;8.60;99.90;;;;;;5012328;28;20083;-81
2024/01/26 07:58:06;;;;;;;5.38;2.85;;;8.60;99.90;;;;;;5030163;28;20091;-80
2024/01/26 08:00:32;;;;;;;7.13;2.50;;;8.60;99.90;;;;;;5028945;28;20565;-80
2024/01/26 08:02:58;;;;;;;4.88;2.47;;;8.60;99.90;;;;;;5010631;28;20438;-80
2024/01/26 08:05:24;;;;;;;5.15;2.85;;;8.60;99.90;;;;;;5012338;28;20403;-80
2024/01/26 08:07:49;;;;;;;4.60;2.35;;;8.60;99.90;;;;;;5030458;28;20044;-80
2024/01/26 08:10:16;;;;;;;4.32;2.35;;;8.60;99.90;;;;;;5012098;28;20029;-80
2024/01/26 08:12:41;;;;;;;3.70;2.50;;;8.60;99.90;;;;;;5009546;28;20037;-81
2024/01/26 08:15:07;;;;;;;3.78;2.55;;;8.60;99.90;;;;;;5027359;28;20100;-80
2024/01/26 08:17:34;;;;;;;6.28;2.33;;;8.60;99.90;;;;;;5012267;28;20083;-80
2024/01/26 08:20:03;;;;;;;4.13;2.25;;;8.60;99.90;;;;;;5012080;28;20022;-81
2024/01/26 08:22:29;;;;;;;8.43;2.67;;;8.60;99.90;;;;;;5009693;28;20067;-81
2024/01/26 08:24:54;;;;;;;6.53;3.10;;;8.70;99.90;;;;;;5011181;28;20021;-80
2024/01/26 08:27:20;;;;;;;3.80;2.20;;;8.70;99.90;;;;;;5006257;28;20033;-80
2024/01/26 08:29:45;;;;;;;3.47;2.20;;;8.70;99.90;;;;;;5012283;28;20157;-81
2024/01/26 08:32:11;;;;;;;5.63;2.40;;;8.70;99.90;;;;;;5012375;28;20758;-81
2024/01/26 08:34:36;;;;;;;4.85;2.60;;;8.80;99.90;;;;;;5012524;28;20029;-80
2024/01/26 08:37:03;;;;;;;4.10;2.63;;;8.80;99.90;;;;;;5028412;28;20373;-80
2024/01/26 08:39:29;;;;;;;6.13;3.20;;;8.80;99.90;;;;;;5011124;28;20021;-80
2024/01/26 08:41:55;;;;;;;4.30;2.65;;;8.90;99.90;;;;;;5026908;28;20021;-80
2024/01/26 08:44:22;;;;;;;4.85;2.65;;;8.90;99.90;;;;;;5011847;28;20026;-81
2024/01/26 08:46:47;;;;;;;3.95;2.30;;;8.90;99.90;;;;;;5012473;28;20048;-80
2024/01/26 08:49:13;;;;;;;3.95;2.30;;;8.90;99.90;;;;;;5013122;28;20776;-80
2024/01/26 08:51:38;;;;;;;6.28;3.03;;;8.90;99.90;;;;;;5027784;28;20403;-80
2024/01/26 08:54:04;;;;;;;6.90;3.20;;;8.90;99.90;;;;;;5028616;28;20607;-80
2024/01/26 08:56:30;;;;;;;7.68;2.53;;;8.90;99.90;;;;;;5015617;28;20021;-79
2024/01/26 08:58:56;;;;;;;3.08;2.20;;;8.90;99.90;;;;;;5015542;28;20027;-80
2024/01/26 09:01:24;;;;;;;7.72;2.42;;;9.00;99.90;;;;;;5033252;28;20541;-80
2024/01/26 09:03:50;;;;;;;4.25;2.25;;;9.00;99.90;;;;;;5033123;28;20108;-80
2024/01/26 09:06:16;;;;;;;4.75;2.35;;;9.00;99.90;;;;;;5029420;28;20025;-80
2024/01/26 09:08:41;;;;;;;3.45;2.10;;;9.00;99.90;;;;;;5030952;28;20428;-81
2024/01/26 09:11:07;;;;;;;4.60;2.50;;;9.10;99.90;;;;;;5015245;28;20030;-80
2024/01/26 09:13:33;;;;;;;3.10;2.00;;;9.10;99.90;;;;;;5013707;28;20052;-81
2024/01/26 09:15:58;;;;;;;3.67;2.10;;;9.10;99.90;;;;;;5033718;28;20013;-80
2024/01/26 09:18:24;;;;;;;9.20;2.22;;;9.10;99.90;;;;;;5031014;28;20025;-80
2024/01/26 09:20:50;;;;;;;4.72;2.30;;;9.10;99.90;;;;;;5013640;28;20025;-80
2024/01/26 09:23:16;;;;;;;3.00;1.80;;;9.10;99.90;;;;;;5033126;28;20017;-79
2024/01/26 09:25:42;;;;;;;4.88;2.20;;;9.10;99.90;;;;;;5028285;28;20503;-81
2024/01/26 09:28:08;;;;;;;2.72;2.33;;;9.10;99.90;;;;;;5014987;28;20076;-79
2024/01/26 09:30:34;;;;;;;4.20;2.10;;;9.10;99.90;;;;;;5028024;28;20029;-80
2024/01/26 09:32:59;;;;;;;4.47;1.92;;;9.10;99.90;;;;;;5029806;28;20025;-80
2024/01/26 09:35:25;;;;;;;3.63;2.03;;;9.20;99.90;;;;;;5014835;28;20025;-80
2024/01/26 09:37:50;;;;;;;2.92;1.80;;;9.20;99.90;;;;;;5015742;28;20048;-80
2024/01/26 09:40:18;;;;;;;3.28;2.10;;;9.20;99.90;;;;;;5013030;28;20113;-80
2024/01/26 09:42:44;;;;;;;7.47;2.17;;;9.30;99.90;;;;;;5012554;28;20098;-80
2024/01/26 09:45:11;;;;;;;4.40;2.13;;;9.30;99.90;;;;;;5028440;28;20072;-79
2024/01/26 09:47:39;;;;;;;5.30;2.17;;;9.30;99.90;;;;;;5033322;28;20049;-80
2024/01/26 09:50:06;;;;;;;3.15;1.63;;;9.30;99.90;;;;;;5014609;28;20017;-80
2024/01/26 09:52:34;;;;;;;3.60;2.05;;;9.40;99.90;;;;;;5028125;28;20030;-80
2024/01/26 09:55:02;;;;;;;2.97;2.15;;;9.40;99.90;;;;;;5009927;28;20022;-81
2024/01/26 09:57:29;;;;;;;4.35;1.67;;;9.40;99.90;;;;;;5013175;28;20037;-80
2024/01/26 09:59:55;;;;;;;4.00;2.08;;;9.40;99.90;;;;;;5014804;28;20030;-80
2024/01/26 10:02:22;;;;;;;4.88;2.25;;;9.40;99.90;;;;;;5014298;28;20506;-81
2024/01/26 10:04:48;;;;;;;2.83;1.70;;;9.50;99.90;;;;;;5013970;28;20120;-81
2024/01/26 10:07:15;;;;;;;3.95;1.83;;;9.40;99.90;;;;;;5014103;28;20117;-81
2024/01/26 10:09:41;;;;;;;3.58;2.03;;;9.40;99.90;;;;;;5011766;28;20026;-81
2024/01/26 10:12:09;;;;;;;2.05;1.77;;;9.30;99.90;;;;;;5015342;28;20096;-80
2024/01/26 10:14:36;;;;;;;4.50;1.88;;;9.20;99.90;;;;;;5010789;28;20026;-80
2024/01/26 10:17:01;;;;;;;4.45;1.80;;;9.10;99.90;;;;;;5029234;28;20098;-81
2024/01/26 10:19:27;;;;;;;3.03;1.55;;;9.10;99.90;;;;;;5009448;28;20124;-81
2024/01/26 10:21:54;;;;;;;4.00;1.63;;;9.10;99.90;;;;;;5012432;28;20058;-80
2024/01/26 10:24:27;;;;;;;6.43;2.20;;;9.10;99.90;;;;;;5031980;28;20017;-80
2024/01/26 10:26:54;;;;;;;2.95;1.83;;;9.00;99.90;;;;;;5014422;28;20022;-81
2024/01/26 10:29:20;;;;;;;2.90;1.90;;;9.00;99.90;;;;;;5030775;28;20021;-80
2024/01/26 10:31:47;;;;;;;8.70;1.98;;;9.00;99.90;;;;;;5011734;28;20053;-80
2024/01/26 10:34:14;;;;;;;3.45;1.70;;;9.00;99.90;;;;;;5029268;28;20479;-81
2024/01/26 10:36:44;;;;;;;2.22;1.70;;;9.00;99.90;;;;;;5013769;28;20033;-80
2024/01/26 10:39:29;;;;;;;2.88;1.83;;;9.00;99.90;;;;;;5013026;28;20021;-81
2024/01/26 10:42:03;;;;;;;3.38;1.90;;;9.00;99.90;;;;;;5027470;28;20029;-81
2024/01/26 10:44:29;;;;;;;4.97;2.00;;;9.00;99.90;;;;;;5029847;28;20020;-80
2024/01/26 10:46:58;;;;;;;2.88;1.58;;;9.00;99.90;;;;;;5024533;28;20121;-81
2024/01/26 10:49:25;;;;;;;2.33;1.95;;;9.00;99.90;;;;;;5013627;28;20021;-80
2024/01/26 10:51:54;;;;;;;4.03;1.60;;;9.00;99.90;;;;;;5012980;28;20083;-80
2024/01/26 10:54:23;;;;;;;4.05;1.98;;;9.00;99.90;;;;;;5026786;28;20029;-81
2024/01/26 10:56:49;;;;;;;2.58;1.70;;;9.00;99.90;;;;;;5008783;28;20030;-80
2024/01/26 10:59:16;;;;;;;4.18;2.03;;;9.00;99.90;;;;;;5008951;28;20018;-81
2024/01/26 11:01:43;;;;;;;7.70;2.03;;;9.10;99.90;;;;;;5029471;28;20026;-80
2024/01/26 11:04:11;;;;;;;2.63;1.80;;;9.20;99.90;;;;;;5013590;28;20155;-80
2024/01/26 11:06:36;;;;;;;3.80;1.90;;;9.20;99.90;;;;;;5029006;28;20060;-81
2024/01/26 11:09:08;;;;;;;4.75;1.67;;;9.30;99.90;;;;;;5024077;28;20053;-80
2024/01/26 11:11:35;;;;;;;4.00;1.75;;;9.20;99.90;;;;;;5013712;28;20496;-81
2024/01/26 11:14:02;;;;;;;4.45;1.70;;;9.20;99.90;;;;;;5013856;28;20040;-80
2024/01/26 11:16:38;;;;;;;8.15;1.77;;;9.10;99.90;;;;;;5009084;28;20018;-80
2024/01/26 11:19:03;;;;;;;2.53;1.42;;;9.10;99.90;;;;;;5011796;28;20527;-80
2024/01/26 11:21:44;;;;;;;2.22;1.40;;;9.00;99.90;;;;;;5006114;28;20026;-80
2024/01/26 11:24:20;;;;;;;3.58;2.03;;;9.00;99.90;;;;;;5027089;28;20471;-80
2024/01/26 11:26:59;;;;;;;1.83;1.42;;;9.00;99.90;;;;;;5012917;28;20030;-82
2024/01/26 11:29:35;;;;;;;1.75;1.40;;;9.00;99.90;;;;;;5003596;28;20133;-80
2024/01/26 11:32:14;;;;;;;1.98;1.60;;;9.00;99.90;;;;;;5027473;28;20435;-81
2024/01/26 11:34:40;;;;;;;4.88;1.75;;;9.00;99.90;;;;;;5022764;28;20030;-81
2024/01/26 11:37:13;;;;;;;3.05;1.63;;;9.00;99.90;;;;;;5012440;28;20029;-81
2024/01/26 11:39:39;;;;;;;2.72;1.73;;;9.00;99.90;;;;;;5027006;28;20025;-80
2024/01/26 11:42:12;;;;;;;3.00;1.77;;;9.00;99.90;;;;;;5030361;28;20090;-80
2024/01/26 11:44:41;;;;;;;5.00;1.65;;;8.90;99.90;;;;;;5027488;28;20100;-81
2024/01/26 11:47:11;;;;;;;3.45;1.65;;;9.00;99.90;;;;;;5026581;28;20022;-81
2024/01/26 11:49:38;;;;;;;2.67;1.60;;;8.90;99.90;;;;;;5011269;28;20124;-79
2024/01/26 11:52:04;;;;;;;3.30;1.42;;;8.90;99.90;;;;;;5011712;28;20125;-81
2024/01/26 11:54:34;;;;;;;3.17;1.70;;;9.00;99.90;;;;;;5028824;28;20072;-81
2024/01/26 11:57:02;;;;;;;3.67;1.80;;;9.00;99.90;;;;;;5007971;28;20399;-80
2024/01/26 11:59:28;;;;;;;6.15;1.50;;;9.00;99.90;;;;;;5007803;28;20038;-81
2024/01/26 12:01:55;;;;;;;6.32;1.98;;;8.90;99.90;;;;;;5009686;28;20022;-80
2024/01/26 12:04:21;;;;;;;3.22;1.52;;;9.00;99.90;;;;;;5012673;28;20060;-81
2024/01/26 12:06:46;;;;;;;4.30;1.50;;;8.90;99.90;;;;;;5025073;28;20049;-80
2024/01/26 12:09:13;;;;;;;2.63;1.77;;;9.00;99.90;;;;;;5011212;28;20061;-80
2024/01/26 12:11:38;;;;;;;1.58;1.48;;;9.00;99.90;;;;;;5024949;28;20021;-80
2024/01/26 12:14:04;;;;;;;1.85;1.52;;;9.00;99.90;;;;;;5021863;28;20022;-79
2024/01/26 12:16:30;;;;;;;3.63;2.03;;;9.00;99.90;;;;;;5012147;28;20120;-80
2024/01/26 12:18:56;;;;;;;2.47;1.70;;;9.00;99.90;;;;;;5011087;28;20017;-79
2024/01/26 12:21:21;;;;;;;3.53;1.65;;;9.00;99.90;;;;;;5012278;28;20053;-80
2024/01/26 12:23:50;;;;;;;2.33;1.63;;;9.00;99.90;;;;;;5010854;28;20093;-80
2024/01/26 12:26:16;;;;;;;3.65;1.90;;;9.00;99.90;;;;;;5011204;28;20026;-81
2024/01/26 12:28:42;;;;;;;2.33;1.55;;;8.90;99.90;;;;;;5012019;28;20030;-82
2024/01/26 12:31:08;;;;;;;5.70;1.98;;;8.90;99.90;;;;;;5011138;28;20029;-80
2024/01/26 12:33:37;;;;;;;4.50;2.15;;;8.90;99.90;;;;;;5027035;28;20061;-80
2024/01/26 12:36:11;;;;;;;5.00;1.97;;;8.90;99.90;;;;;;5009443;28;20030;-80
2024/01/26 12:38:37;;;;;;;7.70;2.20;;;8.90;99.90;;;;;;5003040;28;20037;-80
2024/01/26 12:41:02;;;;;;;4.00;2.08;;;8.90;99.90;;;;;;5011791;28;20041;-80
2024/01/26 12:43:28;;;;;;;3.45;1.80;;;8.90;99.90;;;;;;5029342;28;20022;-80
2024/01/26 12:45:54;;;;;;;2.00;1.55;;;8.90;99.90;;;;;;5025575;28;20014;-80
2024/01/26 12:48:19;;;;;;;2.25;1.90;;;8.90;99.90;;;;;;5011198;28;20124;-80